Fruitdale, Alabama
Current Conditions -  °F | °C
As of 8:56 PM on Friday 28 Nov 2014 (Local Time) from KMOB Reporting Station
Clear Clear  
Wind Chill: 41°   Ceiling: Unl
Heat Index: 41°   Visibility: 10mi
Dew Point: 34°   Wind: 3mph
Humidity: 76%   Direction: 130°SE
Pressure: 30.3"   Gusts: NA
Location:  31.34°N, 88.41°W
Report Text: KMOB 290256Z 13003KT 10SM CLR 05/01 A3030 RMK AO2 SLP259 T00500011 58003
Loading
Personal Weather Stations






























Interactive Weather Map New forecast layout! Learn more

10-Day Weather Forecast

Advertisements
Track Severe Weather on mobile